Brandon, Canada
Current Conditions -  °F | °C
As of 7:00 AM on Thursday 27 Nov 2014 (Local Time) from CYBR Reporting Station
Few Clouds Few Clouds  
Wind Chill: -18°   Ceiling: Unl
Heat Index: -18°   Visibility: 15mi
Dew Point: -24°   Wind: 2mph
Humidity: 76%   Direction: 290°WNW
Pressure: 30.35"   Gusts: NA
Location:  49.85°N, 99.96°W
Report Text: CYBR 271300Z 29002KT 15SM FEW210 M28/M31 A3035 RMK CI1 SLP335
Loading
Personal Weather Stations






























Interactive Weather Map New forecast layout! Learn more

10-Day Weather Forecast

Advertisements
Track Severe Weather on mobile